createdAt,value
2017-03-29T00:00:30.755Z,1014.15
2017-03-29T00:01:42.975Z,1014.19
2017-03-29T00:02:55.218Z,1014.19
2017-03-29T00:04:07.761Z,1014.15
2017-03-29T00:05:20.290Z,1014.17
2017-03-29T00:06:32.813Z,1014.17
2017-03-29T00:07:45.331Z,1014.18
2017-03-29T00:08:57.853Z,1014.16
2017-03-29T00:10:10.370Z,1014.17
2017-03-29T00:11:22.917Z,1014.19
2017-03-29T00:12:35.142Z,1014.15
2017-03-29T00:13:47.687Z,1014.18
2017-03-29T00:15:00.246Z,1014.18
2017-03-29T00:16:12.479Z,1014.21
2017-03-29T00:17:25.003Z,1014.22
2017-03-29T00:18:37.544Z,1014.19
2017-03-29T00:19:50.034Z,1014.14
2017-03-29T00:21:02.542Z,1014.11
2017-03-29T00:22:15.083Z,1014.15
2017-03-29T00:23:27.346Z,1014.16
2017-03-29T00:24:39.864Z,1014.18
2017-03-29T00:25:52.399Z,1014.22
2017-03-29T00:27:04.966Z,1014.21
2017-03-29T00:28:17.488Z,1014.26
2017-03-29T00:29:29.734Z,1014.25
2017-03-29T00:30:42.256Z,1014.25
2017-03-29T00:31:54.812Z,1014.25
2017-03-29T00:33:07.342Z,1014.25
2017-03-29T00:34:19.893Z,1014.24
2017-03-29T00:35:32.410Z,1014.27
2017-03-29T00:36:44.933Z,1014.28
2017-03-29T00:37:57.480Z,1014.29
2017-03-29T00:39:10.026Z,1014.29
2017-03-29T00:40:22.543Z,1014.35
2017-03-29T00:41:35.066Z,1014.28
2017-03-29T00:42:47.584Z,1014.34
2017-03-29T00:44:00.361Z,1014.35
2017-03-29T00:45:12.601Z,1014.33
2017-03-29T00:46:24.801Z,1014.35
2017-03-29T00:47:37.340Z,1014.35
2017-03-29T00:48:49.867Z,1014.33
2017-03-29T00:50:02.386Z,1014.24
2017-03-29T00:51:14.912Z,1014.22
2017-03-29T00:52:27.457Z,1014.24
2017-03-29T00:53:39.969Z,1014.25
2017-03-29T00:54:52.493Z,1014.2
2017-03-29T00:56:04.761Z,1014.18
2017-03-29T00:57:16.690Z,1014.14
2017-03-29T00:58:29.213Z,1014.2
2017-03-29T00:59:41.127Z,1014.18
2017-03-29T01:00:53.655Z,1014.17
2017-03-29T01:02:06.225Z,1014.18
2017-03-29T01:03:18.766Z,1014.14
2017-03-29T01:04:31.287Z,1014.07
2017-03-29T01:05:43.828Z,1014.09
2017-03-29T01:06:56.378Z,1014.05
2017-03-29T01:08:08.602Z,1014.07
2017-03-29T01:09:20.824Z,1014.05
2017-03-29T01:10:33.067Z,1014.07
2017-03-29T01:11:45.595Z,1014.07
2017-03-29T01:12:58.132Z,1014.04
2017-03-29T01:14:10.329Z,1014.03
2017-03-29T01:15:22.854Z,1014
2017-03-29T01:16:35.395Z,1014
2017-03-29T01:17:47.644Z,1014
2017-03-29T01:19:00.192Z,1014
2017-03-29T01:20:12.730Z,1013.97
2017-03-29T01:21:25.326Z,1013.93
2017-03-29T01:22:37.856Z,1013.95
2017-03-29T01:23:50.095Z,1013.96
2017-03-29T01:25:02.622Z,1014
2017-03-29T01:26:14.838Z,1013.97
2017-03-29T01:27:27.364Z,1014
2017-03-29T01:28:39.897Z,1013.98
2017-03-29T01:29:52.430Z,1014.01
2017-03-29T01:31:04.992Z,1013.97
2017-03-29T01:32:17.544Z,1014.03
2017-03-29T01:33:30.090Z,1014
2017-03-29T01:34:42.334Z,1014.01
2017-03-29T01:35:54.879Z,1013.98
2017-03-29T01:37:07.426Z,1013.96
2017-03-29T01:38:19.921Z,1013.96
2017-03-29T01:39:31.861Z,1013.87
2017-03-29T01:40:44.396Z,1013.89
2017-03-29T01:41:56.912Z,1013.86
2017-03-29T01:43:09.460Z,1013.87
2017-03-29T01:44:21.706Z,1013.86
2017-03-29T01:45:34.222Z,1013.88
2017-03-29T01:46:46.744Z,1013.81
2017-03-29T01:47:59.264Z,1013.83
2017-03-29T01:49:11.763Z,1013.81
2017-03-29T01:50:24.286Z,1013.81
2017-03-29T01:51:36.830Z,1013.83
2017-03-29T01:52:49.375Z,1013.83
2017-03-29T01:54:01.615Z,1013.85
2017-03-29T01:55:14.139Z,1013.84
2017-03-29T01:56:26.665Z,1013.83
2017-03-29T01:57:38.907Z,1013.89
2017-03-29T01:58:51.453Z,1013.88
2017-03-29T02:00:03.977Z,1013.86
2017-03-29T02:01:16.222Z,1013.86
2017-03-29T02:02:28.757Z,1013.83
2017-03-29T02:03:41.317Z,1013.87
2017-03-29T02:04:54.111Z,1013.85
2017-03-29T02:06:06.631Z,1013.83
2017-03-29T02:07:18.869Z,1013.82
2017-03-29T02:08:31.373Z,1013.82
2017-03-29T02:09:43.622Z,1013.89
2017-03-29T02:10:56.157Z,1013.92
2017-03-29T02:12:08.653Z,1013.95
2017-03-29T02:13:21.178Z,1013.94
2017-03-29T02:14:33.701Z,1013.99
2017-03-29T02:15:45.620Z,1013.99
2017-03-29T02:16:58.140Z,1014.01
2017-03-29T02:18:10.066Z,1014.04
2017-03-29T02:19:22.308Z,1014.03
2017-03-29T02:20:34.829Z,1013.98
2017-03-29T02:21:47.328Z,1013.96
2017-03-29T02:22:59.874Z,1014.04
2017-03-29T02:24:12.423Z,1014.02
2017-03-29T02:25:24.662Z,1014.11
2017-03-29T02:26:36.913Z,1014.07
2017-03-29T02:27:49.459Z,1014.06
2017-03-29T02:29:02.003Z,1014.02
2017-03-29T02:30:14.550Z,1014
2017-03-29T02:31:26.770Z,1013.93
2017-03-29T02:32:39.312Z,1013.92
2017-03-29T02:33:51.861Z,1013.91
2017-03-29T02:35:04.426Z,1013.98
2017-03-29T02:36:16.676Z,1013.93
2017-03-29T02:37:29.202Z,1013.87
2017-03-29T02:38:41.743Z,1013.9
2017-03-29T02:39:54.263Z,1013.91
2017-03-29T02:41:06.459Z,1013.88
2017-03-29T02:42:18.981Z,1013.96
2017-03-29T02:43:31.526Z,1013.98
2017-03-29T02:44:44.068Z,1013.94
2017-03-29T02:45:56.596Z,1013.91
2017-03-29T02:47:09.092Z,1013.93
2017-03-29T02:48:21.625Z,1013.87
2017-03-29T02:49:34.159Z,1013.81
2017-03-29T02:50:46.105Z,1013.8
2017-03-29T02:51:58.668Z,1013.79
2017-03-29T02:53:11.189Z,1013.72
2017-03-29T02:54:23.744Z,1013.77
2017-03-29T02:55:35.963Z,1013.76
2017-03-29T02:56:48.508Z,1013.69
2017-03-29T02:58:00.451Z,1013.75
2017-03-29T02:59:13.303Z,1013.77
2017-03-29T03:00:25.822Z,1013.77
2017-03-29T03:01:38.090Z,1013.76
2017-03-29T03:02:50.614Z,1013.79
2017-03-29T03:04:03.152Z,1013.73
2017-03-29T03:05:15.352Z,1013.74
2017-03-29T03:06:27.898Z,1013.77
2017-03-29T03:07:40.415Z,1013.67
2017-03-29T03:08:52.964Z,1013.65
2017-03-29T03:10:05.490Z,1013.66
2017-03-29T03:11:18.032Z,1013.67
2017-03-29T03:12:30.561Z,1013.62
2017-03-29T03:13:43.077Z,1013.64
2017-03-29T03:14:55.623Z,1013.62
2017-03-29T03:16:08.172Z,1013.61
2017-03-29T03:17:20.729Z,1013.6
2017-03-29T03:18:33.261Z,1013.58
2017-03-29T03:19:45.202Z,1013.58
2017-03-29T03:20:57.730Z,1013.59
2017-03-29T03:22:10.274Z,1013.57
2017-03-29T03:23:22.496Z,1013.59
2017-03-29T03:24:35.017Z,1013.65
2017-03-29T03:25:47.533Z,1013.64
2017-03-29T03:26:59.771Z,1013.66
2017-03-29T03:28:12.266Z,1013.6
2017-03-29T03:29:24.800Z,1013.59
2017-03-29T03:30:37.023Z,1013.6
2017-03-29T03:31:49.233Z,1013.6
2017-03-29T03:33:01.749Z,1013.61
2017-03-29T03:34:13.954Z,1013.66
2017-03-29T03:35:26.493Z,1013.65
2017-03-29T03:36:39.021Z,1013.64
2017-03-29T03:37:51.571Z,1013.62
2017-03-29T03:39:03.812Z,1013.61
2017-03-29T03:40:16.312Z,1013.57
2017-03-29T03:41:28.858Z,1013.58
2017-03-29T03:42:41.407Z,1013.61
2017-03-29T03:43:53.924Z,1013.65
2017-03-29T03:45:06.442Z,1013.7
2017-03-29T03:46:18.967Z,1013.74
2017-03-29T03:47:31.535Z,1013.74
2017-03-29T03:48:43.758Z,1013.69
2017-03-29T03:49:56.275Z,1013.7
2017-03-29T03:51:08.792Z,1013.73
2017-03-29T03:52:21.025Z,1013.75
2017-03-29T03:53:33.542Z,1013.69
2017-03-29T03:54:45.780Z,1013.66
2017-03-29T03:55:58.276Z,1013.76
2017-03-29T03:57:10.807Z,1013.69
2017-03-29T03:58:23.025Z,1013.72
2017-03-29T03:59:34.951Z,1013.73
2017-03-29T04:00:47.448Z,1013.71
2017-03-29T04:01:59.988Z,1013.7
2017-03-29T04:03:12.534Z,1013.72
2017-03-29T04:04:25.376Z,1013.67
2017-03-29T04:05:37.918Z,1013.68
2017-03-29T04:06:50.447Z,1013.72
2017-03-29T04:08:02.681Z,1013.69
2017-03-29T04:09:15.207Z,1013.7
2017-03-29T04:10:27.734Z,1013.73
2017-03-29T04:11:39.978Z,1013.76
2017-03-29T04:12:52.198Z,1013.79
2017-03-29T04:14:04.724Z,1013.77
2017-03-29T04:15:16.966Z,1013.76
2017-03-29T04:16:29.469Z,1013.72
2017-03-29T04:17:41.951Z,1013.64
2017-03-29T04:18:54.477Z,1013.68
2017-03-29T04:20:06.998Z,1013.66
2017-03-29T04:21:19.201Z,1013.62
2017-03-29T04:22:31.736Z,1013.66
2017-03-29T04:23:44.267Z,1013.67
2017-03-29T04:24:56.792Z,1013.66
2017-03-29T04:26:09.328Z,1013.73
2017-03-29T04:27:21.852Z,1013.77
2017-03-29T04:28:34.395Z,1013.76
2017-03-29T04:29:46.921Z,1013.74
2017-03-29T04:30:59.436Z,1013.8
2017-03-29T04:32:12.336Z,1013.79
2017-03-29T04:33:24.895Z,1013.77
2017-03-29T04:34:37.428Z,1013.77
2017-03-29T04:35:49.645Z,1013.74
2017-03-29T04:37:02.542Z,1013.75
2017-03-29T04:38:15.057Z,1013.67
2017-03-29T04:39:27.574Z,1013.64
2017-03-29T04:40:39.784Z,1013.59
2017-03-29T04:41:52.004Z,1013.63
2017-03-29T04:43:04.248Z,1013.71
2017-03-29T04:44:16.792Z,1013.77
2017-03-29T04:45:29.337Z,1013.81
2017-03-29T04:46:41.862Z,1013.85
2017-03-29T04:47:54.374Z,1013.83
2017-03-29T04:49:06.901Z,1013.75
2017-03-29T04:50:19.446Z,1013.77
2017-03-29T04:51:31.967Z,1013.74
2017-03-29T04:52:44.497Z,1013.77
2017-03-29T04:53:56.716Z,1013.74
2017-03-29T04:55:09.276Z,1013.75
2017-03-29T04:56:21.805Z,1013.74
2017-03-29T04:57:34.049Z,1013.66
2017-03-29T04:58:46.559Z,1013.67
2017-03-29T04:59:59.091Z,1013.69
2017-03-29T05:01:11.638Z,1013.74
2017-03-29T05:02:24.151Z,1013.81
2017-03-29T05:03:36.373Z,1013.84
2017-03-29T05:04:48.897Z,1013.87
2017-03-29T05:06:01.427Z,1013.86
2017-03-29T05:07:13.939Z,1013.84
2017-03-29T05:08:26.451Z,1013.89
2017-03-29T05:09:38.985Z,1013.84
2017-03-29T05:10:51.529Z,1013.8
2017-03-29T05:12:03.463Z,1013.8
2017-03-29T05:13:15.418Z,1013.88
2017-03-29T05:14:27.964Z,1013.89
2017-03-29T05:15:40.489Z,1013.84
2017-03-29T05:16:53.008Z,1013.86
2017-03-29T05:18:05.555Z,1013.92
2017-03-29T05:19:18.097Z,1013.97
2017-03-29T05:20:31.003Z,1013.96
2017-03-29T05:21:43.532Z,1013.9
2017-03-29T05:22:56.036Z,1013.95
2017-03-29T05:24:08.574Z,1013.98
2017-03-29T05:25:20.795Z,1013.94
2017-03-29T05:26:33.299Z,1013.94
2017-03-29T05:27:45.222Z,1013.93
2017-03-29T05:28:57.460Z,1013.98
2017-03-29T05:30:10.017Z,1014
2017-03-29T05:31:22.561Z,1014.06
2017-03-29T05:32:35.106Z,1014.09
2017-03-29T05:33:47.694Z,1014.12
2017-03-29T05:35:00.248Z,1014.1
2017-03-29T05:36:12.786Z,1014.12
2017-03-29T05:37:25.012Z,1014.07
2017-03-29T05:38:37.537Z,1014.13
2017-03-29T05:39:49.803Z,1014.15
2017-03-29T05:41:02.316Z,1014.16
2017-03-29T05:42:14.848Z,1014.21
2017-03-29T05:43:27.416Z,1014.19
2017-03-29T05:44:39.916Z,1014.16
2017-03-29T05:45:52.149Z,1014.15
2017-03-29T05:47:04.362Z,1014.21
2017-03-29T05:48:16.905Z,1014.16
2017-03-29T05:49:29.445Z,1014.14
2017-03-29T05:50:42.024Z,1014.15
2017-03-29T05:51:54.292Z,1014.16
2017-03-29T05:53:07.164Z,1014.12
2017-03-29T05:54:19.404Z,1014.13
2017-03-29T05:55:31.929Z,1014.11
2017-03-29T05:56:44.174Z,1014.2
2017-03-29T05:57:56.393Z,1014.16
2017-03-29T05:59:08.941Z,1014.22
2017-03-29T06:00:21.512Z,1014.19
2017-03-29T06:01:33.761Z,1014.18
2017-03-29T06:02:45.979Z,1014.24
2017-03-29T06:03:58.225Z,1014.28
2017-03-29T06:05:10.760Z,1014.2
2017-03-29T06:06:23.281Z,1014.18
2017-03-29T06:07:35.784Z,1014.16
2017-03-29T06:08:48.305Z,1014.16
2017-03-29T06:10:00.532Z,1014.14
2017-03-29T06:11:12.776Z,1014.12
2017-03-29T06:12:25.298Z,1014.16
2017-03-29T06:13:37.844Z,1014.14
2017-03-29T06:14:50.416Z,1014.21
2017-03-29T06:16:02.956Z,1014.2
2017-03-29T06:17:15.202Z,1014.18
2017-03-29T06:18:27.715Z,1014.19
2017-03-29T06:19:40.246Z,1014.25
2017-03-29T06:20:52.784Z,1014.21
2017-03-29T06:22:05.040Z,1014.26
2017-03-29T06:23:17.264Z,1014.23
2017-03-29T06:24:29.803Z,1014.23
2017-03-29T06:25:42.323Z,1014.24
2017-03-29T06:26:54.851Z,1014.21
2017-03-29T06:28:07.393Z,1014.21
2017-03-29T06:29:19.335Z,1014.18
2017-03-29T06:30:31.914Z,1014.27
2017-03-29T06:31:44.473Z,1014.25
2017-03-29T06:32:57.025Z,1014.26
2017-03-29T06:34:09.622Z,1014.2
2017-03-29T06:35:22.191Z,1014.29
2017-03-29T06:36:34.404Z,1014.32
2017-03-29T06:37:46.937Z,1014.34
2017-03-29T06:38:59.453Z,1014.37
2017-03-29T06:40:11.995Z,1014.41
2017-03-29T06:41:24.527Z,1014.4
2017-03-29T06:42:37.065Z,1014.36
2017-03-29T06:43:49.565Z,1014.34
2017-03-29T06:45:02.111Z,1014.37
2017-03-29T06:46:14.358Z,1014.31
2017-03-29T06:47:26.881Z,1014.27
2017-03-29T06:48:39.397Z,1014.28
2017-03-29T06:49:51.641Z,1014.25
2017-03-29T06:51:03.865Z,1014.24
2017-03-29T06:52:16.412Z,1014.22
2017-03-29T06:53:28.654Z,1014.25
2017-03-29T06:54:41.176Z,1014.29
2017-03-29T06:55:53.421Z,1014.23
2017-03-29T06:57:05.645Z,1014.28
2017-03-29T06:58:18.166Z,1014.32
2017-03-29T06:59:30.704Z,1014.31
2017-03-29T07:00:43.250Z,1014.27
2017-03-29T07:01:55.479Z,1014.25
2017-03-29T07:03:08.003Z,1014.24
2017-03-29T07:04:20.285Z,1014.31
2017-03-29T07:05:33.380Z,1014.41
2017-03-29T07:06:46.040Z,1014.3
2017-03-29T07:07:57.959Z,1014.31
2017-03-29T07:09:10.479Z,1014.45
2017-03-29T07:10:23.051Z,1014.28
2017-03-29T07:11:35.634Z,1014.37
2017-03-29T07:12:47.845Z,1014.34
2017-03-29T07:13:59.809Z,1014.32
2017-03-29T07:15:12.356Z,1014.36
2017-03-29T07:16:24.879Z,1014.35
2017-03-29T07:17:37.414Z,1014.42
2017-03-29T07:18:49.647Z,1014.35
2017-03-29T07:20:02.255Z,1014.36
2017-03-29T07:21:14.466Z,1014.4
2017-03-29T07:22:26.986Z,1014.38
2017-03-29T07:23:39.522Z,1014.35
2017-03-29T07:24:52.076Z,1014.37
2017-03-29T07:26:04.610Z,1014.4
2017-03-29T07:27:17.142Z,1014.41
2017-03-29T07:28:29.702Z,1014.43
2017-03-29T07:29:42.231Z,1014.45
2017-03-29T07:30:54.777Z,1014.47
2017-03-29T07:32:07.026Z,1014.51
2017-03-29T07:33:19.590Z,1014.48
2017-03-29T07:34:32.094Z,1014.48
2017-03-29T07:35:44.661Z,1014.41
2017-03-29T07:36:57.185Z,1014.51
2017-03-29T07:38:09.737Z,1014.51
2017-03-29T07:39:22.265Z,1014.55
2017-03-29T07:40:34.794Z,1014.57
2017-03-29T07:41:47.323Z,1014.64
2017-03-29T07:42:59.878Z,1014.68
2017-03-29T07:44:12.406Z,1014.6
2017-03-29T07:45:24.933Z,1014.64
2017-03-29T07:46:37.483Z,1014.65
2017-03-29T07:47:50.025Z,1014.55
2017-03-29T07:49:02.570Z,1014.59
2017-03-29T07:50:15.091Z,1014.55
2017-03-29T07:51:27.629Z,1014.51
2017-03-29T07:52:40.159Z,1014.47
2017-03-29T07:53:52.684Z,1014.34
2017-03-29T07:55:05.229Z,1014.51
2017-03-29T07:56:17.787Z,1014.53
2017-03-29T07:57:30.032Z,1014.53
2017-03-29T07:58:42.561Z,1014.53
2017-03-29T07:59:55.103Z,1014.6
2017-03-29T08:01:07.350Z,1014.61
2017-03-29T08:02:19.896Z,1014.6
2017-03-29T08:03:32.445Z,1014.54
2017-03-29T08:04:44.968Z,1014.56
2017-03-29T08:05:57.513Z,1014.55
2017-03-29T08:07:10.056Z,1014.64
2017-03-29T08:08:22.596Z,1014.72
2017-03-29T08:09:34.800Z,1014.69
2017-03-29T08:10:47.335Z,1014.71
2017-03-29T08:11:59.905Z,1014.73
2017-03-29T08:13:12.438Z,1014.78
2017-03-29T08:14:24.957Z,1014.84
2017-03-29T08:15:37.521Z,1014.88
2017-03-29T08:16:50.050Z,1014.84
2017-03-29T08:18:02.585Z,1014.91
2017-03-29T08:19:15.106Z,1014.9
2017-03-29T08:20:27.656Z,1014.96
2017-03-29T08:21:40.209Z,1014.96
2017-03-29T08:22:52.472Z,1014.88
2017-03-29T08:24:05.008Z,1014.88
2017-03-29T08:25:17.535Z,1014.92
2017-03-29T08:26:29.785Z,1014.86
2017-03-29T08:27:42.359Z,1014.87
2017-03-29T08:28:54.606Z,1015.01
2017-03-29T08:30:07.155Z,1015.03
2017-03-29T08:31:19.701Z,1014.98
2017-03-29T08:32:32.270Z,1014.94
2017-03-29T08:33:44.798Z,1014.94
2017-03-29T08:34:57.343Z,1014.97
2017-03-29T08:36:09.606Z,1015.01
2017-03-29T08:37:22.147Z,1014.95
2017-03-29T08:38:34.080Z,1014.94
2017-03-29T08:39:46.622Z,1014.91
2017-03-29T08:40:59.168Z,1015.07
2017-03-29T08:42:11.410Z,1015.1
2017-03-29T08:43:23.928Z,1015.16
2017-03-29T08:44:36.457Z,1015.16
2017-03-29T08:45:48.702Z,1015.2
2017-03-29T08:47:01.236Z,1015.21
2017-03-29T08:48:13.486Z,1015.18
2017-03-29T08:49:26.036Z,1015.24
2017-03-29T08:50:38.558Z,1015.19
2017-03-29T08:51:50.499Z,1015.27
2017-03-29T08:53:03.041Z,1015.25
2017-03-29T08:54:14.969Z,1015.21
2017-03-29T08:55:27.509Z,1015.12
2017-03-29T08:56:40.030Z,1015.06
2017-03-29T08:57:52.540Z,1015.12
2017-03-29T08:59:05.100Z,1015.26
2017-03-29T09:00:17.641Z,1015.18
2017-03-29T09:01:30.171Z,1015.23
2017-03-29T09:02:42.683Z,1015.26
2017-03-29T09:03:55.220Z,1015.36
2017-03-29T09:05:07.475Z,1015.42
2017-03-29T09:06:20.004Z,1015.48
2017-03-29T09:07:32.531Z,1015.42
2017-03-29T09:08:45.074Z,1015.43
2017-03-29T09:09:57.619Z,1015.38
2017-03-29T09:11:10.162Z,1015.45
2017-03-29T09:12:22.719Z,1015.37
2017-03-29T09:13:35.246Z,1015.45
2017-03-29T09:14:47.771Z,1015.47
2017-03-29T09:16:00.014Z,1015.62
2017-03-29T09:17:12.573Z,1015.64
2017-03-29T09:18:25.109Z,1015.64
2017-03-29T09:19:37.359Z,1015.62
2017-03-29T09:20:49.890Z,1015.62
2017-03-29T09:22:02.430Z,1015.62
2017-03-29T09:23:14.955Z,1015.6
2017-03-29T09:24:27.510Z,1015.73
2017-03-29T09:25:40.055Z,1015.64
2017-03-29T09:26:52.610Z,1015.64
2017-03-29T09:28:05.156Z,1015.59
2017-03-29T09:29:17.705Z,1015.52
2017-03-29T09:30:30.275Z,1015.53
2017-03-29T09:31:42.821Z,1015.47
2017-03-29T09:32:55.068Z,1015.43
2017-03-29T09:34:07.638Z,1015.42
2017-03-29T09:35:20.209Z,1015.49
2017-03-29T09:36:32.778Z,1015.68
2017-03-29T09:37:45.293Z,1015.68
2017-03-29T09:38:57.548Z,1015.83
2017-03-29T09:40:10.085Z,1015.63
2017-03-29T09:41:22.629Z,1015.8
2017-03-29T09:42:35.158Z,1015.86
2017-03-29T09:43:47.682Z,1015.85
2017-03-29T09:45:00.244Z,1015.88
2017-03-29T09:46:12.798Z,1015.96
2017-03-29T09:47:25.343Z,1015.95
2017-03-29T09:48:37.886Z,1015.79
2017-03-29T09:49:50.136Z,1015.82
2017-03-29T09:51:02.395Z,1015.54
2017-03-29T09:52:14.966Z,1015.62
2017-03-29T09:53:27.503Z,1015.68
2017-03-29T09:54:40.041Z,1015.6
2017-03-29T09:55:52.590Z,1015.48
2017-03-29T09:57:05.108Z,1015.67
2017-03-29T09:58:17.671Z,1015.75
2017-03-29T09:59:30.202Z,1015.73
2017-03-29T10:00:42.772Z,1015.77
2017-03-29T10:01:55.317Z,1015.59
2017-03-29T10:03:07.854Z,1015.66
2017-03-29T10:04:20.378Z,1015.62
2017-03-29T10:05:32.630Z,1015.69
2017-03-29T10:06:45.150Z,1015.65
2017-03-29T10:07:57.689Z,1015.53
2017-03-29T10:09:10.233Z,1015.69
2017-03-29T10:10:22.765Z,1015.62
2017-03-29T10:11:35.309Z,1015.61
2017-03-29T10:12:47.571Z,1015.7
2017-03-29T10:13:59.504Z,1015.66
2017-03-29T10:15:12.063Z,1015.85
2017-03-29T10:16:24.572Z,1015.79
2017-03-29T10:17:37.121Z,1015.92
2017-03-29T10:18:49.663Z,1015.79
2017-03-29T10:20:02.201Z,1015.82
2017-03-29T10:21:14.730Z,1015.81
2017-03-29T10:22:27.298Z,1015.79
2017-03-29T10:23:39.817Z,1015.83
2017-03-29T10:24:52.364Z,1015.79
2017-03-29T10:26:04.627Z,1015.82
2017-03-29T10:27:17.151Z,1015.75
2017-03-29T10:28:29.402Z,1015.74
2017-03-29T10:29:41.954Z,1015.82
2017-03-29T10:30:54.495Z,1015.78
2017-03-29T10:32:06.734Z,1015.59
2017-03-29T10:33:19.302Z,1015.69
2017-03-29T10:34:31.523Z,1015.58
2017-03-29T10:35:44.052Z,1015.65
2017-03-29T10:36:55.976Z,1015.89
2017-03-29T10:38:08.247Z,1015.75
2017-03-29T10:39:20.766Z,1015.77
2017-03-29T10:40:33.313Z,1015.71
2017-03-29T10:41:45.879Z,1015.64
2017-03-29T10:42:58.419Z,1015.74
2017-03-29T10:44:10.642Z,1015.62
2017-03-29T10:45:22.873Z,1015.39
2017-03-29T10:46:35.390Z,1015.45
2017-03-29T10:47:47.653Z,1015.39
2017-03-29T10:49:00.177Z,1015.53
2017-03-29T10:50:12.745Z,1015.4
2017-03-29T10:51:25.298Z,1015.44
2017-03-29T10:52:37.863Z,1015.42
2017-03-29T10:53:50.390Z,1015.48
2017-03-29T10:55:02.936Z,1015.57
2017-03-29T10:56:15.176Z,1015.53
2017-03-29T10:57:27.724Z,1015.65
2017-03-29T10:58:40.224Z,1015.77
2017-03-29T10:59:52.450Z,1015.92
2017-03-29T11:01:04.993Z,1015.88
2017-03-29T11:02:17.516Z,1015.91
2017-03-29T11:03:30.049Z,1015.88
2017-03-29T11:04:42.559Z,1015.78
2017-03-29T11:05:54.799Z,1015.65
2017-03-29T11:07:07.329Z,1015.72
2017-03-29T11:08:19.842Z,1015.59
2017-03-29T11:09:32.072Z,1015.81
2017-03-29T11:10:44.318Z,1015.89
2017-03-29T11:11:56.575Z,1015.77
2017-03-29T11:13:08.504Z,1015.79
2017-03-29T11:14:21.054Z,1015.84
2017-03-29T11:15:32.695Z,1015.86
2017-03-29T11:16:44.655Z,1015.72
2017-03-29T11:17:57.183Z,1015.86
2017-03-29T11:19:09.732Z,1015.73
2017-03-29T11:20:21.985Z,1015.88
2017-03-29T11:21:34.500Z,1015.91
2017-03-29T11:22:46.738Z,1016
2017-03-29T11:23:58.994Z,1016.01
2017-03-29T11:25:11.227Z,1016.01
2017-03-29T11:26:23.457Z,1015.91
2017-03-29T11:27:36.000Z,1016.04
2017-03-29T11:28:48.523Z,1015.89
2017-03-29T11:30:00.445Z,1015.93
2017-03-29T11:31:12.668Z,1016
2017-03-29T11:32:24.888Z,1016.01
2017-03-29T11:33:37.455Z,1015.93
2017-03-29T11:34:50.004Z,1016.06
2017-03-29T11:36:02.522Z,1016.07
2017-03-29T11:37:14.768Z,1016.02
2017-03-29T11:38:26.993Z,1016.12
2017-03-29T11:39:39.564Z,1016.14
2017-03-29T11:40:52.109Z,1016.08
2017-03-29T11:42:04.344Z,1016.09
2017-03-29T11:43:16.589Z,1016.09
2017-03-29T11:44:28.814Z,1016.03
2017-03-29T11:45:41.374Z,1016.01
2017-03-29T11:46:53.910Z,1016.11
2017-03-29T11:48:06.430Z,1016.11
2017-03-29T11:49:18.656Z,1016.02
2017-03-29T11:50:30.923Z,1015.95
2017-03-29T11:51:43.468Z,1016
2017-03-29T11:52:56.012Z,1016.03
2017-03-29T11:54:07.914Z,1016.07
2017-03-29T11:55:19.856Z,1016.08
2017-03-29T11:56:32.078Z,1016.08
2017-03-29T11:57:44.632Z,1016.06
2017-03-29T11:58:57.148Z,1016.1
2017-03-29T12:00:09.672Z,1016.12
2017-03-29T12:01:21.610Z,1015.97
2017-03-29T12:02:33.577Z,1016.01
2017-03-29T12:03:46.106Z,1016.05
2017-03-29T12:04:58.353Z,1016
2017-03-29T12:06:10.594Z,1016.01
2017-03-29T12:07:22.816Z,1016.12
2017-03-29T12:08:35.061Z,1016.1
2017-03-29T12:09:47.566Z,1016.09
2017-03-29T12:11:00.095Z,1016.03
2017-03-29T12:12:12.660Z,1015.95
2017-03-29T12:13:24.901Z,1016
2017-03-29T12:14:37.437Z,1015.95
2017-03-29T12:15:49.969Z,1015.99
2017-03-29T12:17:01.908Z,1015.98
2017-03-29T12:18:14.133Z,1016
2017-03-29T12:19:26.371Z,1016.06
2017-03-29T12:20:38.596Z,1015.9
2017-03-29T12:21:50.845Z,1016
2017-03-29T12:23:03.091Z,1016.01
2017-03-29T12:24:15.612Z,1016
2017-03-29T12:25:27.897Z,1016
2017-03-29T12:26:40.130Z,1015.88
2017-03-29T12:27:52.676Z,1015.9
2017-03-29T12:29:05.221Z,1015.87
2017-03-29T12:30:17.460Z,1015.83
2017-03-29T12:31:29.709Z,1015.88
2017-03-29T12:32:42.223Z,1015.82
2017-03-29T12:33:54.736Z,1015.81
2017-03-29T12:35:07.271Z,1015.81
2017-03-29T12:36:19.772Z,1015.77
2017-03-29T12:37:32.313Z,1015.81
2017-03-29T12:38:44.562Z,1015.88
2017-03-29T12:39:57.126Z,1015.88
2017-03-29T12:41:09.378Z,1015.83
2017-03-29T12:42:21.924Z,1015.82
2017-03-29T12:43:34.473Z,1015.85
2017-03-29T12:44:47.017Z,1015.88
2017-03-29T12:45:59.543Z,1015.89
2017-03-29T12:47:11.810Z,1015.85
2017-03-29T12:48:24.344Z,1015.71
2017-03-29T12:49:36.893Z,1015.78
2017-03-29T12:50:49.453Z,1015.83
2017-03-29T12:52:02.017Z,1015.87
2017-03-29T12:53:14.553Z,1015.87
2017-03-29T12:54:27.085Z,1015.89
2017-03-29T12:55:39.609Z,1015.91
2017-03-29T12:56:52.148Z,1015.89
2017-03-29T12:58:04.397Z,1015.9
2017-03-29T12:59:16.945Z,1015.88
2017-03-29T13:00:28.902Z,1015.85
2017-03-29T13:01:41.441Z,1015.87
2017-03-29T13:02:53.980Z,1015.85
2017-03-29T13:04:06.523Z,1015.82
2017-03-29T13:05:18.765Z,1015.75
2017-03-29T13:06:30.994Z,1015.84
2017-03-29T13:07:43.540Z,1015.75
2017-03-29T13:08:56.082Z,1015.74
2017-03-29T13:10:08.320Z,1015.69
2017-03-29T13:11:20.567Z,1015.76
2017-03-29T13:12:33.075Z,1015.73
2017-03-29T13:13:45.594Z,1015.74
2017-03-29T13:14:58.157Z,1015.73
2017-03-29T13:16:10.385Z,1015.73
2017-03-29T13:17:22.582Z,1015.77
2017-03-29T13:18:35.455Z,1015.81
2017-03-29T13:19:48.012Z,1015.79
2017-03-29T13:21:00.247Z,1015.74
2017-03-29T13:22:12.507Z,1015.77
2017-03-29T13:23:25.060Z,1015.8
2017-03-29T13:24:37.607Z,1015.78
2017-03-29T13:25:49.856Z,1015.71
2017-03-29T13:27:02.102Z,1015.76
2017-03-29T13:28:14.359Z,1015.81
2017-03-29T13:29:26.582Z,1015.81
2017-03-29T13:30:39.186Z,1015.8
2017-03-29T13:31:51.435Z,1015.82
2017-03-29T13:33:03.995Z,1015.75
2017-03-29T13:34:16.521Z,1015.81
2017-03-29T13:35:28.441Z,1015.81
2017-03-29T13:36:40.666Z,1015.82
2017-03-29T13:37:52.913Z,1015.81
2017-03-29T13:39:05.450Z,1015.79
2017-03-29T13:40:17.654Z,1015.87
2017-03-29T13:41:29.613Z,1015.86
2017-03-29T13:42:41.838Z,1015.85
2017-03-29T13:43:53.791Z,1015.8
2017-03-29T13:45:06.035Z,1015.79
2017-03-29T13:46:18.561Z,1015.82
2017-03-29T13:47:30.501Z,1015.85
2017-03-29T13:48:43.052Z,1015.86
2017-03-29T13:49:55.295Z,1015.86
2017-03-29T13:51:07.261Z,1015.77
2017-03-29T13:52:19.809Z,1015.79
2017-03-29T13:53:32.032Z,1015.77
2017-03-29T13:54:44.583Z,1015.79
2017-03-29T13:55:57.081Z,1015.81
2017-03-29T13:57:09.347Z,1015.8
2017-03-29T13:58:21.569Z,1015.82
2017-03-29T13:59:33.461Z,1015.79
2017-03-29T14:00:45.985Z,1015.86
2017-03-29T14:01:58.530Z,1015.88
2017-03-29T14:03:11.023Z,1015.78
2017-03-29T14:04:23.268Z,1015.78
2017-03-29T14:05:35.508Z,1015.76
2017-03-29T14:06:48.040Z,1015.73
2017-03-29T14:08:00.581Z,1015.72
2017-03-29T14:09:12.809Z,1015.74
2017-03-29T14:10:25.357Z,1015.77
2017-03-29T14:11:37.918Z,1015.8
2017-03-29T14:12:50.143Z,1015.75
2017-03-29T14:14:02.386Z,1015.77
2017-03-29T14:15:14.914Z,1015.76
2017-03-29T14:16:27.455Z,1015.75
2017-03-29T14:17:40.003Z,1015.77
2017-03-29T14:18:52.249Z,1015.75
2017-03-29T14:20:04.783Z,1015.73
2017-03-29T14:21:17.329Z,1015.76
2017-03-29T14:22:29.290Z,1015.7
2017-03-29T14:23:41.832Z,1015.69
2017-03-29T14:24:54.378Z,1015.71
2017-03-29T14:26:06.937Z,1015.69
2017-03-29T14:27:19.471Z,1015.64
2017-03-29T14:28:31.740Z,1015.59
2017-03-29T14:29:44.626Z,1015.62
2017-03-29T14:30:57.154Z,1015.62
2017-03-29T14:32:09.403Z,1015.7
2017-03-29T14:33:21.920Z,1015.64
2017-03-29T14:34:34.450Z,1015.65
2017-03-29T14:35:47.019Z,1015.61
2017-03-29T14:36:59.554Z,1015.57
2017-03-29T14:38:12.072Z,1015.57
2017-03-29T14:39:24.578Z,1015.56